sensor_id;sensor_type;location;lat;lon;timestamp;temperature;humidity
59881;DHT22;45751;51.380;10.326;2022-11-27T00:01:29;4.70;99.90
59881;DHT22;45751;51.380;10.326;2022-11-27T00:03:56;4.70;99.90
59881;DHT22;45751;51.380;10.326;2022-11-27T00:06:26;4.70;99.90
59881;DHT22;45751;51.380;10.326;2022-11-27T00:08:55;4.70;99.90
59881;DHT22;45751;51.380;10.326;2022-11-27T00:11:25;4.70;99.90
59881;DHT22;45751;51.380;10.326;2022-11-27T00:13:52;4.70;99.90
59881;DHT22;45751;51.380;10.326;2022-11-27T00:16:21;4.70;99.90
59881;DHT22;45751;51.380;10.326;2022-11-27T00:18:53;4.70;99.90
59881;DHT22;45751;51.380;10.326;2022-11-27T00:21:22;4.70;99.90
59881;DHT22;45751;51.380;10.326;2022-11-27T00:23:52;4.70;99.90
59881;DHT22;45751;51.380;10.326;2022-11-27T00:26:19;4.70;99.90
59881;DHT22;45751;51.380;10.326;2022-11-27T00:28:46;4.70;99.90
59881;DHT22;45751;51.380;10.326;2022-11-27T00:31:27;4.70;99.90
59881;DHT22;45751;51.380;10.326;2022-11-27T00:33:57;4.70;99.90
59881;DHT22;45751;51.380;10.326;2022-11-27T00:36:30;4.70;99.90
59881;DHT22;45751;51.380;10.326;2022-11-27T00:38:58;4.70;99.90
59881;DHT22;45751;51.380;10.326;2022-11-27T00:41:29;4.70;99.90
59881;DHT22;45751;51.380;10.326;2022-11-27T00:43:56;4.70;99.90
59881;DHT22;45751;51.380;10.326;2022-11-27T00:46:26;4.70;99.90
59881;DHT22;45751;51.380;10.326;2022-11-27T00:49:02;4.70;99.90
59881;DHT22;45751;51.380;10.326;2022-11-27T00:51:32;4.60;99.90
59881;DHT22;45751;51.380;10.326;2022-11-27T00:53:59;4.70;99.90
59881;DHT22;45751;51.380;10.326;2022-11-27T00:56:29;4.70;99.90
59881;DHT22;45751;51.380;10.326;2022-11-27T00:58:57;4.70;99.90
59881;DHT22;45751;51.380;10.326;2022-11-27T01:03:57;4.70;99.90
59881;DHT22;45751;51.380;10.326;2022-11-27T01:06:26;4.70;99.90
59881;DHT22;45751;51.380;10.326;2022-11-27T01:08:54;4.60;99.90
59881;DHT22;45751;51.380;10.326;2022-11-27T01:11:27;4.70;99.90
59881;DHT22;45751;51.380;10.326;2022-11-27T01:13:57;4.60;99.90
59881;DHT22;45751;51.380;10.326;2022-11-27T01:16:28;4.70;99.90
59881;DHT22;45751;51.380;10.326;2022-11-27T01:18:56;4.60;99.90
59881;DHT22;45751;51.380;10.326;2022-11-27T01:21:28;4.60;99.90
59881;DHT22;45751;51.380;10.326;2022-11-27T01:23:55;4.60;99.90
59881;DHT22;45751;51.380;10.326;2022-11-27T01:26:23;4.60;99.90
59881;DHT22;45751;51.380;10.326;2022-11-27T01:28:53;4.60;99.90
59881;DHT22;45751;51.380;10.326;2022-11-27T01:31:25;4.50;99.90
59881;DHT22;45751;51.380;10.326;2022-11-27T01:33:56;4.50;99.90
59881;DHT22;45751;51.380;10.326;2022-11-27T01:36:27;4.60;99.90
59881;DHT22;45751;51.380;10.326;2022-11-27T01:38:55;4.50;99.90
59881;DHT22;45751;51.380;10.326;2022-11-27T01:41:28;4.50;99.90
59881;DHT22;45751;51.380;10.326;2022-11-27T01:44:00;4.50;99.90
59881;DHT22;45751;51.380;10.326;2022-11-27T01:46:43;4.50;99.90
59881;DHT22;45751;51.380;10.326;2022-11-27T01:52:00;4.50;99.90
59881;DHT22;45751;51.380;10.326;2022-11-27T01:55:48;4.50;99.90
59881;DHT22;45751;51.380;10.326;2022-11-27T01:57:49;4.50;99.90
59881;DHT22;45751;51.380;10.326;2022-11-27T02:00:18;4.50;99.90
59881;DHT22;45751;51.380;10.326;2022-11-27T02:02:45;4.40;99.90
59881;DHT22;45751;51.380;10.326;2022-11-27T02:05:18;4.50;99.90
59881;DHT22;45751;51.380;10.326;2022-11-27T02:07:45;4.40;99.90
59881;DHT22;45751;51.380;10.326;2022-11-27T02:10:14;4.40;99.90
59881;DHT22;45751;51.380;10.326;2022-11-27T02:13:12;4.40;99.90
59881;DHT22;45751;51.380;10.326;2022-11-27T02:15:47;4.40;99.90
59881;DHT22;45751;51.380;10.326;2022-11-27T02:19:18;4.30;99.90
59881;DHT22;45751;51.380;10.326;2022-11-27T02:24:16;4.30;99.90
59881;DHT22;45751;51.380;10.326;2022-11-27T02:29:28;4.30;99.90
59881;DHT22;45751;51.380;10.326;2022-11-27T02:32:26;4.30;99.90
59881;DHT22;45751;51.380;10.326;2022-11-27T02:35:14;4.30;99.90
59881;DHT22;45751;51.380;10.326;2022-11-27T02:38:01;4.30;99.90
59881;DHT22;45751;51.380;10.326;2022-11-27T02:41:03;4.30;99.90
59881;DHT22;45751;51.380;10.326;2022-11-27T02:43:36;4.30;99.90
59881;DHT22;45751;51.380;10.326;2022-11-27T02:46:07;4.30;99.90
59881;DHT22;45751;51.380;10.326;2022-11-27T02:49:20;4.30;99.90
59881;DHT22;45751;51.380;10.326;2022-11-27T02:51:46;4.30;99.90
59881;DHT22;45751;51.380;10.326;2022-11-27T02:54:24;4.30;99.90
59881;DHT22;45751;51.380;10.326;2022-11-27T02:56:55;4.30;99.90
59881;DHT22;45751;51.380;10.326;2022-11-27T02:59:26;4.30;99.90
59881;DHT22;45751;51.380;10.326;2022-11-27T03:02:00;4.30;99.90
59881;DHT22;45751;51.380;10.326;2022-11-27T03:04:39;4.30;99.90
59881;DHT22;45751;51.380;10.326;2022-11-27T03:07:13;4.30;99.90
59881;DHT22;45751;51.380;10.326;2022-11-27T03:09:46;4.30;99.90
59881;DHT22;45751;51.380;10.326;2022-11-27T03:12:15;4.30;99.90
59881;DHT22;45751;51.380;10.326;2022-11-27T03:14:45;4.30;99.90
59881;DHT22;45751;51.380;10.326;2022-11-27T03:20:20;4.20;99.90
59881;DHT22;45751;51.380;10.326;2022-11-27T03:22:47;4.20;99.90
59881;DHT22;45751;51.380;10.326;2022-11-27T03:25:15;4.20;99.90
59881;DHT22;45751;51.380;10.326;2022-11-27T03:27:47;4.30;99.90
59881;DHT22;45751;51.380;10.326;2022-11-27T03:30:20;4.20;99.90
59881;DHT22;45751;51.380;10.326;2022-11-27T03:32:47;4.20;99.90
59881;DHT22;45751;51.380;10.326;2022-11-27T03:35:19;4.20;99.90
59881;DHT22;45751;51.380;10.326;2022-11-27T03:37:49;4.20;99.90
59881;DHT22;45751;51.380;10.326;2022-11-27T03:40:17;4.20;99.90
59881;DHT22;45751;51.380;10.326;2022-11-27T03:42:55;4.20;99.90
59881;DHT22;45751;51.380;10.326;2022-11-27T03:45:57;4.20;99.90
59881;DHT22;45751;51.380;10.326;2022-11-27T03:54:11;4.20;99.90
59881;DHT22;45751;51.380;10.326;2022-11-27T03:59:15;4.10;99.90
59881;DHT22;45751;51.380;10.326;2022-11-27T04:01:46;4.10;99.90
59881;DHT22;45751;51.380;10.326;2022-11-27T04:04:14;4.10;99.90
59881;DHT22;45751;51.380;10.326;2022-11-27T04:06:41;4.10;99.90
59881;DHT22;45751;51.380;10.326;2022-11-27T04:09:08;4.10;99.90
59881;DHT22;45751;51.380;10.326;2022-11-27T04:11:36;4.10;99.90
59881;DHT22;45751;51.380;10.326;2022-11-27T04:14:03;4.10;99.90
59881;DHT22;45751;51.380;10.326;2022-11-27T04:16:30;4.10;99.90
59881;DHT22;45751;51.380;10.326;2022-11-27T04:19:00;4.10;99.90
59881;DHT22;45751;51.380;10.326;2022-11-27T04:21:26;4.10;99.90
59881;DHT22;45751;51.380;10.326;2022-11-27T04:23:53;4.10;99.90
59881;DHT22;45751;51.380;10.326;2022-11-27T04:26:23;4.10;99.90
59881;DHT22;45751;51.380;10.326;2022-11-27T04:28:50;4.00;99.90
59881;DHT22;45751;51.380;10.326;2022-11-27T04:31:17;4.10;99.90
59881;DHT22;45751;51.380;10.326;2022-11-27T04:33:47;4.10;99.90
59881;DHT22;45751;51.380;10.326;2022-11-27T04:36:13;4.10;99.90
59881;DHT22;45751;51.380;10.326;2022-11-27T04:38:41;4.10;99.90
59881;DHT22;45751;51.380;10.326;2022-11-27T04:41:08;4.10;99.90
59881;DHT22;45751;51.380;10.326;2022-11-27T04:43:35;4.10;99.90
59881;DHT22;45751;51.380;10.326;2022-11-27T04:46:02;4.10;99.90
59881;DHT22;45751;51.380;10.326;2022-11-27T04:48:31;4.10;99.90
59881;DHT22;45751;51.380;10.326;2022-11-27T04:50:57;4.10;99.90
59881;DHT22;45751;51.380;10.326;2022-11-27T04:53:24;4.10;99.90
59881;DHT22;45751;51.380;10.326;2022-11-27T04:55:53;4.10;99.90
59881;DHT22;45751;51.380;10.326;2022-11-27T04:58:19;4.10;99.90
59881;DHT22;45751;51.380;10.326;2022-11-27T05:00:48;4.10;99.90
59881;DHT22;45751;51.380;10.326;2022-11-27T05:03:16;4.00;99.90
59881;DHT22;45751;51.380;10.326;2022-11-27T05:05:44;4.10;99.90
59881;DHT22;45751;51.380;10.326;2022-11-27T05:08:11;4.10;99.90
59881;DHT22;45751;51.380;10.326;2022-11-27T05:10:37;4.10;99.90
59881;DHT22;45751;51.380;10.326;2022-11-27T05:13:08;4.10;99.90
59881;DHT22;45751;51.380;10.326;2022-11-27T05:15:36;4.10;99.90
59881;DHT22;45751;51.380;10.326;2022-11-27T05:18:02;4.10;99.90
59881;DHT22;45751;51.380;10.326;2022-11-27T05:20:29;4.10;99.90
59881;DHT22;45751;51.380;10.326;2022-11-27T05:22:57;4.10;99.90
59881;DHT22;45751;51.380;10.326;2022-11-27T05:25:24;4.10;99.90
59881;DHT22;45751;51.380;10.326;2022-11-27T05:27:52;4.10;99.90
59881;DHT22;45751;51.380;10.326;2022-11-27T05:30:22;4.10;99.90
59881;DHT22;45751;51.380;10.326;2022-11-27T05:32:49;4.10;99.90
59881;DHT22;45751;51.380;10.326;2022-11-27T05:35:15;4.10;99.90
59881;DHT22;45751;51.380;10.326;2022-11-27T05:37:43;4.10;99.90
59881;DHT22;45751;51.380;10.326;2022-11-27T05:40:12;4.10;99.90
59881;DHT22;45751;51.380;10.326;2022-11-27T05:42:41;4.10;99.90
59881;DHT22;45751;51.380;10.326;2022-11-27T05:45:08;4.10;99.90
59881;DHT22;45751;51.380;10.326;2022-11-27T05:47:37;4.10;99.90
59881;DHT22;45751;51.380;10.326;2022-11-27T05:50:05;4.10;99.90
59881;DHT22;45751;51.380;10.326;2022-11-27T05:52:32;4.10;99.90
59881;DHT22;45751;51.380;10.326;2022-11-27T05:55:01;4.10;99.90
59881;DHT22;45751;51.380;10.326;2022-11-27T05:57:29;4.10;99.90
59881;DHT22;45751;51.380;10.326;2022-11-27T05:59:57;4.10;99.90
59881;DHT22;45751;51.380;10.326;2022-11-27T06:02:30;4.10;99.90
59881;DHT22;45751;51.380;10.326;2022-11-27T06:05:00;4.10;99.90
59881;DHT22;45751;51.380;10.326;2022-11-27T06:07:30;4.10;99.90
59881;DHT22;45751;51.380;10.326;2022-11-27T06:09:57;4.20;99.90
59881;DHT22;45751;51.380;10.326;2022-11-27T06:12:24;4.10;99.90
59881;DHT22;45751;51.380;10.326;2022-11-27T06:14:53;4.10;99.90
59881;DHT22;45751;51.380;10.326;2022-11-27T06:17:20;4.10;99.90
59881;DHT22;45751;51.380;10.326;2022-11-27T06:19:48;4.10;99.90
59881;DHT22;45751;51.380;10.326;2022-11-27T06:22:15;4.10;99.90
59881;DHT22;45751;51.380;10.326;2022-11-27T06:24:43;4.00;99.90
59881;DHT22;45751;51.380;10.326;2022-11-27T06:27:11;4.00;99.90
59881;DHT22;45751;51.380;10.326;2022-11-27T06:29:37;4.00;99.90
59881;DHT22;45751;51.380;10.326;2022-11-27T06:32:05;4.00;99.90
59881;DHT22;45751;51.380;10.326;2022-11-27T06:34:35;4.00;99.90
59881;DHT22;45751;51.380;10.326;2022-11-27T06:37:02;3.90;99.90
59881;DHT22;45751;51.380;10.326;2022-11-27T06:39:30;3.90;99.90
59881;DHT22;45751;51.380;10.326;2022-11-27T06:41:57;3.90;99.90
59881;DHT22;45751;51.380;10.326;2022-11-27T06:44:25;3.80;99.90
59881;DHT22;45751;51.380;10.326;2022-11-27T06:46:53;3.70;99.90
59881;DHT22;45751;51.380;10.326;2022-11-27T06:49:20;3.70;99.90
59881;DHT22;45751;51.380;10.326;2022-11-27T06:51:48;3.70;99.90
59881;DHT22;45751;51.380;10.326;2022-11-27T06:54:18;3.70;99.90
59881;DHT22;45751;51.380;10.326;2022-11-27T06:56:48;3.60;99.90
59881;DHT22;45751;51.380;10.326;2022-11-27T06:59:17;3.50;99.90
59881;DHT22;45751;51.380;10.326;2022-11-27T07:01:46;3.50;99.90
59881;DHT22;45751;51.380;10.326;2022-11-27T07:04:14;3.60;99.90
59881;DHT22;45751;51.380;10.326;2022-11-27T07:06:43;3.50;99.90
59881;DHT22;45751;51.380;10.326;2022-11-27T07:09:10;3.50;99.90
59881;DHT22;45751;51.380;10.326;2022-11-27T07:11:39;3.50;99.90
59881;DHT22;45751;51.380;10.326;2022-11-27T07:14:06;3.50;99.90
59881;DHT22;45751;51.380;10.326;2022-11-27T07:16:35;3.50;99.90
59881;DHT22;45751;51.380;10.326;2022-11-27T07:19:06;3.40;99.90
59881;DHT22;45751;51.380;10.326;2022-11-27T07:21:35;3.40;99.90
59881;DHT22;45751;51.380;10.326;2022-11-27T07:24:02;3.40;99.90
59881;DHT22;45751;51.380;10.326;2022-11-27T07:26:30;3.40;99.90
59881;DHT22;45751;51.380;10.326;2022-11-27T07:28:57;3.40;99.90
59881;DHT22;45751;51.380;10.326;2022-11-27T07:31:28;3.40;99.90
59881;DHT22;45751;51.380;10.326;2022-11-27T07:33:56;3.40;99.90
59881;DHT22;45751;51.380;10.326;2022-11-27T07:36:27;3.40;99.90
59881;DHT22;45751;51.380;10.326;2022-11-27T07:38:57;3.30;99.90
59881;DHT22;45751;51.380;10.326;2022-11-27T07:41:24;3.30;99.90
59881;DHT22;45751;51.380;10.326;2022-11-27T07:44:02;3.30;99.90
59881;DHT22;45751;51.380;10.326;2022-11-27T07:46:31;3.30;99.90
59881;DHT22;45751;51.380;10.326;2022-11-27T07:48:58;3.30;99.90
59881;DHT22;45751;51.380;10.326;2022-11-27T07:51:26;3.30;99.90
59881;DHT22;45751;51.380;10.326;2022-11-27T07:53:54;3.30;99.90
59881;DHT22;45751;51.380;10.326;2022-11-27T07:56:22;3.30;99.90
59881;DHT22;45751;51.380;10.326;2022-11-27T07:58:50;3.30;99.90
59881;DHT22;45751;51.380;10.326;2022-11-27T08:01:19;3.30;99.90
59881;DHT22;45751;51.380;10.326;2022-11-27T08:03:48;3.30;99.90
59881;DHT22;45751;51.380;10.326;2022-11-27T08:06:21;3.30;99.90
59881;DHT22;45751;51.380;10.326;2022-11-27T08:08:53;3.30;99.90
59881;DHT22;45751;51.380;10.326;2022-11-27T08:11:28;3.30;99.90
59881;DHT22;45751;51.380;10.326;2022-11-27T08:14:04;3.30;99.90
59881;DHT22;45751;51.380;10.326;2022-11-27T08:16:34;3.30;99.90
59881;DHT22;45751;51.380;10.326;2022-11-27T08:19:01;3.30;99.90
59881;DHT22;45751;51.380;10.326;2022-11-27T08:21:34;3.40;99.90
59881;DHT22;45751;51.380;10.326;2022-11-27T08:24:01;3.40;99.90
59881;DHT22;45751;51.380;10.326;2022-11-27T08:26:29;3.40;99.90
59881;DHT22;45751;51.380;10.326;2022-11-27T08:28:57;3.40;99.90
59881;DHT22;45751;51.380;10.326;2022-11-27T08:31:24;3.40;99.90
59881;DHT22;45751;51.380;10.326;2022-11-27T08:33:53;3.50;99.90
59881;DHT22;45751;51.380;10.326;2022-11-27T08:36:25;3.50;99.90
59881;DHT22;45751;51.380;10.326;2022-11-27T08:38:56;3.60;99.90
59881;DHT22;45751;51.380;10.326;2022-11-27T08:41:25;3.60;99.90
59881;DHT22;45751;51.380;10.326;2022-11-27T08:43:52;3.60;99.90
59881;DHT22;45751;51.380;10.326;2022-11-27T08:46:19;3.70;99.90
59881;DHT22;45751;51.380;10.326;2022-11-27T08:48:47;3.60;99.90
59881;DHT22;45751;51.380;10.326;2022-11-27T08:51:15;3.60;99.90
59881;DHT22;45751;51.380;10.326;2022-11-27T08:53:44;3.70;99.90
59881;DHT22;45751;51.380;10.326;2022-11-27T08:56:22;3.70;99.90
59881;DHT22;45751;51.380;10.326;2022-11-27T08:58:50;3.70;99.90
59881;DHT22;45751;51.380;10.326;2022-11-27T09:01:20;3.70;99.90
59881;DHT22;45751;51.380;10.326;2022-11-27T09:03:49;3.70;99.90
59881;DHT22;45751;51.380;10.326;2022-11-27T09:06:19;3.80;99.90
59881;DHT22;45751;51.380;10.326;2022-11-27T09:08:48;3.80;99.90
59881;DHT22;45751;51.380;10.326;2022-11-27T09:11:17;3.80;99.90
59881;DHT22;45751;51.380;10.326;2022-11-27T09:13:46;3.80;99.90
59881;DHT22;45751;51.380;10.326;2022-11-27T09:16:16;3.90;99.90
59881;DHT22;45751;51.380;10.326;2022-11-27T09:18:45;4.00;99.90
59881;DHT22;45751;51.380;10.326;2022-11-27T09:21:14;4.00;99.90
59881;DHT22;45751;51.380;10.326;2022-11-27T09:23:43;4.00;99.90
59881;DHT22;45751;51.380;10.326;2022-11-27T09:26:13;4.20;99.90
59881;DHT22;45751;51.380;10.326;2022-11-27T09:28:41;4.10;99.90
59881;DHT22;45751;51.380;10.326;2022-11-27T09:31:11;4.20;99.90
59881;DHT22;45751;51.380;10.326;2022-11-27T09:33:41;4.20;99.90
59881;DHT22;45751;51.380;10.326;2022-11-27T09:36:17;4.20;99.90
59881;DHT22;45751;51.380;10.326;2022-11-27T09:38:46;4.30;99.90
59881;DHT22;45751;51.380;10.326;2022-11-27T09:52:26;4.40;99.90
59881;DHT22;45751;51.380;10.326;2022-11-27T09:58:05;4.50;99.90
59881;DHT22;45751;51.380;10.326;2022-11-27T10:00:34;4.60;99.90
59881;DHT22;45751;51.380;10.326;2022-11-27T10:03:04;4.60;99.90
59881;DHT22;45751;51.380;10.326;2022-11-27T10:05:38;4.60;99.90
59881;DHT22;45751;51.380;10.326;2022-11-27T10:26:57;4.80;99.90
59881;DHT22;45751;51.380;10.326;2022-11-27T10:32:28;4.80;99.90
59881;DHT22;45751;51.380;10.326;2022-11-27T10:35:17;4.90;99.90
59881;DHT22;45751;51.380;10.326;2022-11-27T10:37:48;4.90;99.90
59881;DHT22;45751;51.380;10.326;2022-11-27T10:40:44;4.90;99.90
59881;DHT22;45751;51.380;10.326;2022-11-27T10:43:19;4.90;99.90
59881;DHT22;45751;51.380;10.326;2022-11-27T10:46:36;4.90;99.90
59881;DHT22;45751;51.380;10.326;2022-11-27T10:48:40;5.00;99.90
59881;DHT22;45751;51.380;10.326;2022-11-27T10:51:17;5.00;99.90
59881;DHT22;45751;51.380;10.326;2022-11-27T10:53:51;5.10;99.90
59881;DHT22;45751;51.380;10.326;2022-11-27T10:59:32;5.20;99.90
59881;DHT22;45751;51.380;10.326;2022-11-27T11:02:02;5.30;99.90
59881;DHT22;45751;51.380;10.326;2022-11-27T11:04:32;5.30;99.90
59881;DHT22;45751;51.380;10.326;2022-11-27T11:07:24;5.30;99.90
59881;DHT22;45751;51.380;10.326;2022-11-27T11:09:53;5.40;99.90
59881;DHT22;45751;51.380;10.326;2022-11-27T11:12:22;5.40;99.90
59881;DHT22;45751;51.380;10.326;2022-11-27T11:14:59;5.40;99.90
59881;DHT22;45751;51.380;10.326;2022-11-27T11:17:32;5.40;99.90
59881;DHT22;45751;51.380;10.326;2022-11-27T11:20:34;5.50;99.90
59881;DHT22;45751;51.380;10.326;2022-11-27T11:23:05;5.50;99.90
59881;DHT22;45751;51.380;10.326;2022-11-27T11:25:32;5.50;99.90
59881;DHT22;45751;51.380;10.326;2022-11-27T11:27:59;5.60;99.90
59881;DHT22;45751;51.380;10.326;2022-11-27T11:30:28;5.60;99.90
59881;DHT22;45751;51.380;10.326;2022-11-27T11:33:00;5.60;99.90
59881;DHT22;45751;51.380;10.326;2022-11-27T11:35:33;5.70;99.90
59881;DHT22;45751;51.380;10.326;2022-11-27T11:38:14;5.70;99.90
59881;DHT22;45751;51.380;10.326;2022-11-27T11:41:03;5.70;99.90
59881;DHT22;45751;51.380;10.326;2022-11-27T11:43:33;5.70;99.90
59881;DHT22;45751;51.380;10.326;2022-11-27T11:46:17;5.70;99.90
59881;DHT22;45751;51.380;10.326;2022-11-27T11:48:58;5.80;99.90
59881;DHT22;45751;51.380;10.326;2022-11-27T11:57:34;5.80;99.90
59881;DHT22;45751;51.380;10.326;2022-11-27T12:00:13;5.90;99.90
59881;DHT22;45751;51.380;10.326;2022-11-27T12:11:25;6.00;99.90
59881;DHT22;45751;51.380;10.326;2022-11-27T12:17:01;6.00;99.90
59881;DHT22;45751;51.380;10.326;2022-11-27T12:25:46;6.10;99.90
59881;DHT22;45751;51.380;10.326;2022-11-27T12:37:46;6.00;99.90
59881;DHT22;45751;51.380;10.326;2022-11-27T12:46:21;6.00;99.90
59881;DHT22;45751;51.380;10.326;2022-11-27T12:48:56;6.10;99.90
59881;DHT22;45751;51.380;10.326;2022-11-27T12:51:28;6.00;99.90
59881;DHT22;45751;51.380;10.326;2022-11-27T12:54:31;6.00;99.90
59881;DHT22;45751;51.380;10.326;2022-11-27T12:57:07;6.10;99.90
59881;DHT22;45751;51.380;10.326;2022-11-27T12:59:50;6.00;99.90
59881;DHT22;45751;51.380;10.326;2022-11-27T13:02:27;6.00;99.90
59881;DHT22;45751;51.380;10.326;2022-11-27T13:10:12;6.00;99.90
59881;DHT22;45751;51.380;10.326;2022-11-27T13:13:30;6.00;99.90
59881;DHT22;45751;51.380;10.326;2022-11-27T13:18:34;6.00;99.90
59881;DHT22;45751;51.380;10.326;2022-11-27T13:21:08;6.10;99.90
59881;DHT22;45751;51.380;10.326;2022-11-27T13:23:37;6.10;99.90
59881;DHT22;45751;51.380;10.326;2022-11-27T13:26:54;6.10;99.90
59881;DHT22;45751;51.380;10.326;2022-11-27T13:29:20;6.10;99.90
59881;DHT22;45751;51.380;10.326;2022-11-27T13:31:54;6.20;99.90
59881;DHT22;45751;51.380;10.326;2022-11-27T13:34:25;6.20;99.90
59881;DHT22;45751;51.380;10.326;2022-11-27T13:37:04;6.20;99.90
59881;DHT22;45751;51.380;10.326;2022-11-27T13:44:44;6.20;99.90
59881;DHT22;45751;51.380;10.326;2022-11-27T13:47:20;6.20;99.80
59881;DHT22;45751;51.380;10.326;2022-11-27T13:50:00;6.20;99.80
59881;DHT22;45751;51.380;10.326;2022-11-27T13:52:27;6.20;99.60
59881;DHT22;45751;51.380;10.326;2022-11-27T13:55:00;6.20;99.50
59881;DHT22;45751;51.380;10.326;2022-11-27T13:57:29;6.20;99.40
59881;DHT22;45751;51.380;10.326;2022-11-27T14:02:47;6.10;99.80
59881;DHT22;45751;51.380;10.326;2022-11-27T14:05:17;6.10;99.70
59881;DHT22;45751;51.380;10.326;2022-11-27T14:07:48;6.10;99.70
59881;DHT22;45751;51.380;10.326;2022-11-27T14:10:26;6.10;99.60
59881;DHT22;45751;51.380;10.326;2022-11-27T14:13:01;6.10;99.70
59881;DHT22;45751;51.380;10.326;2022-11-27T14:15:30;6.10;99.80
59881;DHT22;45751;51.380;10.326;2022-11-27T14:18:06;6.10;99.90
59881;DHT22;45751;51.380;10.326;2022-11-27T14:20:51;6.10;99.90
59881;DHT22;45751;51.380;10.326;2022-11-27T14:23:48;6.10;99.90
59881;DHT22;45751;51.380;10.326;2022-11-27T14:26:22;6.00;99.90
59881;DHT22;45751;51.380;10.326;2022-11-27T14:28:56;6.00;99.90
59881;DHT22;45751;51.380;10.326;2022-11-27T14:31:27;6.00;99.90
59881;DHT22;45751;51.380;10.326;2022-11-27T14:33:58;6.00;99.90
59881;DHT22;45751;51.380;10.326;2022-11-27T14:36:51;6.00;99.90
59881;DHT22;45751;51.380;10.326;2022-11-27T14:39:32;6.00;99.90
59881;DHT22;45751;51.380;10.326;2022-11-27T14:42:05;6.00;99.90
59881;DHT22;45751;51.380;10.326;2022-11-27T14:44:34;5.90;99.90
59881;DHT22;45751;51.380;10.326;2022-11-27T14:47:04;5.90;99.90
59881;DHT22;45751;51.380;10.326;2022-11-27T14:49:32;5.80;99.90
59881;DHT22;45751;51.380;10.326;2022-11-27T14:52:04;5.80;99.90
59881;DHT22;45751;51.380;10.326;2022-11-27T14:54:39;5.70;99.90
59881;DHT22;45751;51.380;10.326;2022-11-27T14:57:15;5.70;99.90
59881;DHT22;45751;51.380;10.326;2022-11-27T14:59:45;5.60;99.90
59881;DHT22;45751;51.380;10.326;2022-11-27T15:02:17;5.60;99.90
59881;DHT22;45751;51.380;10.326;2022-11-27T15:05:01;5.50;99.90
59881;DHT22;45751;51.380;10.326;2022-11-27T15:07:31;5.40;99.90
59881;DHT22;45751;51.380;10.326;2022-11-27T15:10:29;5.50;99.90
59881;DHT22;45751;51.380;10.326;2022-11-27T15:12:59;5.30;99.90
59881;DHT22;45751;51.380;10.326;2022-11-27T15:15:29;5.30;99.90
59881;DHT22;45751;51.380;10.326;2022-11-27T15:18:05;5.20;99.90
59881;DHT22;45751;51.380;10.326;2022-11-27T15:20:36;5.20;99.90
59881;DHT22;45751;51.380;10.326;2022-11-27T15:23:14;5.10;99.90
59881;DHT22;45751;51.380;10.326;2022-11-27T15:25:44;5.10;99.90
59881;DHT22;45751;51.380;10.326;2022-11-27T15:31:00;5.10;99.90
59881;DHT22;45751;51.380;10.326;2022-11-27T15:33:31;5.00;99.90
59881;DHT22;45751;51.380;10.326;2022-11-27T15:36:15;5.00;99.90
59881;DHT22;45751;51.380;10.326;2022-11-27T15:38:44;5.00;99.90
59881;DHT22;45751;51.380;10.326;2022-11-27T15:41:26;4.90;99.90
59881;DHT22;45751;51.380;10.326;2022-11-27T15:43:56;4.90;99.90
59881;DHT22;45751;51.380;10.326;2022-11-27T15:46:25;4.90;99.90
59881;DHT22;45751;51.380;10.326;2022-11-27T15:48:53;5.00;99.90
59881;DHT22;45751;51.380;10.326;2022-11-27T15:51:20;4.90;99.90
59881;DHT22;45751;51.380;10.326;2022-11-27T15:53:47;4.80;99.90
59881;DHT22;45751;51.380;10.326;2022-11-27T15:56:15;4.80;99.90
59881;DHT22;45751;51.380;10.326;2022-11-27T15:58:43;4.80;99.90
59881;DHT22;45751;51.380;10.326;2022-11-27T16:01:13;4.80;99.90
59881;DHT22;45751;51.380;10.326;2022-11-27T16:03:40;4.90;99.90
59881;DHT22;45751;51.380;10.326;2022-11-27T16:06:09;4.80;99.90
59881;DHT22;45751;51.380;10.326;2022-11-27T16:08:36;4.70;99.90
59881;DHT22;45751;51.380;10.326;2022-11-27T16:11:06;4.80;99.90
59881;DHT22;45751;51.380;10.326;2022-11-27T16:13:35;4.70;99.90
59881;DHT22;45751;51.380;10.326;2022-11-27T16:16:04;4.70;99.90
59881;DHT22;45751;51.380;10.326;2022-11-27T16:18:32;4.70;99.90
59881;DHT22;45751;51.380;10.326;2022-11-27T16:21:09;4.70;99.90
59881;DHT22;45751;51.380;10.326;2022-11-27T16:23:38;4.70;99.90
59881;DHT22;45751;51.380;10.326;2022-11-27T16:26:09;4.60;99.90
59881;DHT22;45751;51.380;10.326;2022-11-27T16:28:40;4.60;99.90
59881;DHT22;45751;51.380;10.326;2022-11-27T16:31:10;4.60;99.90
59881;DHT22;45751;51.380;10.326;2022-11-27T16:33:39;4.60;99.90
59881;DHT22;45751;51.380;10.326;2022-11-27T16:36:11;4.60;99.90
59881;DHT22;45751;51.380;10.326;2022-11-27T16:38:40;4.50;99.90
59881;DHT22;45751;51.380;10.326;2022-11-27T16:41:18;4.50;99.90
59881;DHT22;45751;51.380;10.326;2022-11-27T16:43:48;4.50;99.90
59881;DHT22;45751;51.380;10.326;2022-11-27T16:46:20;4.60;99.90
59881;DHT22;45751;51.380;10.326;2022-11-27T16:48:52;4.50;99.90
59881;DHT22;45751;51.380;10.326;2022-11-27T16:51:29;4.50;99.90
59881;DHT22;45751;51.380;10.326;2022-11-27T16:54:03;4.50;99.90
59881;DHT22;45751;51.380;10.326;2022-11-27T16:56:32;4.50;99.90
59881;DHT22;45751;51.380;10.326;2022-11-27T16:59:07;4.50;99.90
59881;DHT22;45751;51.380;10.326;2022-11-27T17:01:35;4.50;99.90
59881;DHT22;45751;51.380;10.326;2022-11-27T17:04:15;4.50;99.90
59881;DHT22;45751;51.380;10.326;2022-11-27T17:06:42;4.50;99.90
59881;DHT22;45751;51.380;10.326;2022-11-27T17:09:12;4.50;99.90
59881;DHT22;45751;51.380;10.326;2022-11-27T17:11:43;4.50;99.90
59881;DHT22;45751;51.380;10.326;2022-11-27T17:14:10;4.50;99.90
59881;DHT22;45751;51.380;10.326;2022-11-27T17:16:39;4.50;99.90
59881;DHT22;45751;51.380;10.326;2022-11-27T17:19:11;4.50;99.90
59881;DHT22;45751;51.380;10.326;2022-11-27T17:21:43;4.50;99.90
59881;DHT22;45751;51.380;10.326;2022-11-27T17:24:12;4.50;99.90
59881;DHT22;45751;51.380;10.326;2022-11-27T17:26:44;4.50;99.90
59881;DHT22;45751;51.380;10.326;2022-11-27T17:29:17;4.50;99.90
59881;DHT22;45751;51.380;10.326;2022-11-27T17:31:44;4.40;99.90
59881;DHT22;45751;51.380;10.326;2022-11-27T17:34:16;4.50;99.90
59881;DHT22;45751;51.380;10.326;2022-11-27T17:36:44;4.50;99.90
59881;DHT22;45751;51.380;10.326;2022-11-27T17:39:13;4.50;99.90
59881;DHT22;45751;51.380;10.326;2022-11-27T17:41:42;4.50;99.90
59881;DHT22;45751;51.380;10.326;2022-11-27T17:44:10;4.50;99.90
59881;DHT22;45751;51.380;10.326;2022-11-27T17:46:39;4.50;99.90
59881;DHT22;45751;51.380;10.326;2022-11-27T17:49:09;4.50;99.90
59881;DHT22;45751;51.380;10.326;2022-11-27T17:51:37;4.50;99.90
59881;DHT22;45751;51.380;10.326;2022-11-27T17:54:04;4.50;99.90
59881;DHT22;45751;51.380;10.326;2022-11-27T17:56:34;4.50;99.90
59881;DHT22;45751;51.380;10.326;2022-11-27T17:59:02;4.60;99.90